Time;durP1;ratioP1;P1;durP2;ratioP2;P2;SDS_P1;SDS_P2;PMS_P1;PMS_P2;Temp;Humidity;BMP_temperature;BMP_pressure;BME280_temperature;BME280_humidity;BME280_pressure;Samples;Min_cycle;Max_cycle;Signal;HPM_P1;HPM_P2
2023/04/02 00:00:11;;;;;;;;;4.00;4.00;;;;;12.74;64.12;100894.22;6277705;22;45504;-66
2023/04/02 00:02:58;;;;;;;;;7.50;6.00;;;;;12.73;63.91;100890.69;6277518;22;45276;-66
2023/04/02 00:05:24;;;;;;;;;4.00;4.00;;;;;12.73;64.01;100898.72;6277173;22;45467;-66
2023/04/02 00:07:52;;;;;;;;;4.25;4.25;;;;;12.37;63.80;100842.09;6276937;22;45426;-66
2023/04/02 00:10:31;;;;;;;;;6.00;4.50;;;;;12.73;63.66;100906.75;6277080;22;45421;-66
2023/04/02 00:13:17;;;;;;;;;5.00;3.75;;;;;12.69;63.60;100890.84;6276773;22;45335;-66
2023/04/02 00:15:46;;;;;;;;;5.00;4.25;;;;;12.52;63.82;100883.47;6276754;22;45272;-66
2023/04/02 00:18:20;;;;;;;;;4.00;4.00;;;;;12.36;63.74;100857.28;6249063;22;47291;-66
2023/04/02 00:20:51;;;;;;;;;4.50;4.25;;;;;12.62;63.62;100894.72;6277038;22;45221;-66
2023/04/02 00:23:18;;;;;;;;;5.00;4.00;;;;;12.68;63.56;100905.16;6249457;22;45343;-66
2023/04/02 00:25:45;;;;;;;;;5.00;5.00;;;;;12.44;63.49;100866.81;6277538;22;45272;-66
2023/04/02 00:28:16;;;;;;;;;4.00;4.00;;;;;12.47;63.52;100880.97;6276738;22;45989;-66
2023/04/02 00:30:46;;;;;;;;;4.25;3.25;;;;;12.53;63.32;100883.41;6277372;22;45451;-66
2023/04/02 00:33:17;;;;;;;;;2.00;2.00;;;;;12.67;62.86;100911.47;6277456;22;45572;-66
2023/04/02 00:35:42;;;;;;;;;5.50;5.00;;;;;12.55;63.40;100894.94;6277532;22;45278;-66
2023/04/02 00:38:19;;;;;;;;;5.00;4.00;;;;;12.50;63.55;100896.06;6276736;22;45225;-66
2023/04/02 00:40:45;;;;;;;;;4.00;3.00;;;;;12.69;63.66;100929.22;6249216;22;45264;-66
2023/04/02 00:43:17;;;;;;;;;3.25;3.00;;;;;12.38;63.38;100878.66;6277284;22;45260;-66
2023/04/02 00:45:49;;;;;;;;;4.50;3.75;;;;;12.40;63.34;100892.84;6276824;22;45457;-66
2023/04/02 00:48:27;;;;;;;;;4.75;4.75;;;;;12.62;63.60;100925.03;6276098;22;45445;-66
2023/04/02 00:50:54;;;;;;;;;4.50;4.00;;;;;12.47;63.37;100910.41;6277218;22;45249;-66
2023/04/02 00:53:30;;;;;;;;;6.00;6.00;;;;;12.48;63.38;100913.94;6277335;22;45244;-66
2023/04/02 00:56:02;;;;;;;;;4.00;4.00;;;;;12.38;63.28;100895.56;6249309;22;45437;-66
2023/04/02 00:58:36;;;;;;;;;4.00;4.00;;;;;12.36;63.66;100888.50;6276490;22;46281;-66
2023/04/02 01:01:03;;;;;;;;;2.00;1.25;;;;;12.52;63.77;100923.63;6276890;22;45346;-66
2023/04/02 01:03:34;;;;;;;;;6.50;5.50;;;;;12.40;63.63;100903.53;6277099;22;45249;-66
2023/04/02 01:06:09;;;;;;;;;5.25;4.75;;;;;12.61;63.66;100933.97;6276773;22;45280;-66
2023/04/02 01:09:00;;;;;;;;;7.00;5.50;;;;;12.34;63.78;100901.94;6249145;22;47772;-66
2023/04/02 01:11:57;;;;;;;;;5.00;4.00;;;;;12.63;63.63;100948.22;6276922;22;45371;-66
2023/04/02 01:14:40;;;;;;;;;7.50;5.50;;;;;12.62;63.67;100943.78;6277277;22;45378;-66
2023/04/02 01:17:27;;;;;;;;;4.50;4.50;;;;;12.39;63.69;100913.34;6276633;22;45199;-66
2023/04/02 01:20:11;;;;;;;;;3.50;3.50;;;;;12.60;64.33;100951.88;6276737;22;45408;-66
2023/04/02 01:22:56;;;;;;;;;5.00;5.00;;;;;12.57;63.91;100953.78;6276556;22;45351;-66
2023/04/02 01:25:34;;;;;;;;;3.50;3.50;;;;;12.28;63.90;100912.00;6277300;22;45359;-66
2023/04/02 01:28:11;;;;;;;;;5.50;5.25;;;;;12.40;64.19;100930.31;6277972;22;45283;-66
2023/04/02 01:30:37;;;;;;;;;4.25;4.25;;;;;12.22;64.10;100897.94;6250123;22;47069;-66
2023/04/02 01:33:05;;;;;;;;;4.25;4.00;;;;;12.38;64.38;100925.03;6278189;22;45208;-66
2023/04/02 01:35:35;;;;;;;;;2.25;2.00;;;;;12.30;64.88;100934.28;6278557;22;45403;-66
2023/04/02 01:38:24;;;;;;;;;3.00;3.00;;;;;12.50;65.01;100971.88;6249954;22;45436;-66
2023/04/02 01:41:20;;;;;;;;;4.00;3.00;;;;;12.21;64.97;100924.75;6278108;22;46119;-66
2023/04/02 01:43:55;;;;;;;;;4.75;3.50;;;;;12.28;65.16;100939.69;6277803;22;45468;-66
2023/04/02 01:46:30;;;;;;;;;2.50;1.50;;;;;12.19;65.96;100938.19;6250302;22;45311;-66
2023/04/02 01:48:59;;;;;;;;;3.00;3.00;;;;;12.21;65.41;100944.38;6277800;22;45459;-66
2023/04/02 01:51:31;;;;;;;;;2.00;2.00;;;;;12.20;65.15;100937.25;6277711;22;45343;-66
2023/04/02 01:54:00;;;;;;;;;3.00;1.00;;;;;12.39;65.28;100968.72;6278273;22;45437;-66
2023/04/02 01:56:27;;;;;;;;;2.00;2.00;;;;;12.08;64.78;100918.97;6278008;22;45272;-66
2023/04/02 01:58:53;;;;;;;;;2.00;2.00;;;;;12.16;64.78;100932.97;6277936;22;45385;-66
2023/04/02 02:01:22;;;;;;;;;1.75;1.75;;;;;12.08;64.69;100915.41;6277956;22;45538;-66
2023/04/02 02:03:48;;;;;;;;;3.00;1.00;;;;;12.13;64.74;100932.19;6277818;22;45635;-66
2023/04/02 02:06:17;;;;;;;;;1.00;1.00;;;;;11.98;64.74;100912.22;6277844;22;45553;-66
2023/04/02 02:08:53;;;;;;;;;2.00;1.00;;;;;12.14;64.96;100941.97;6278177;22;45260;-66
2023/04/02 02:11:22;;;;;;;;;1.00;1.00;;;;;12.03;64.78;100937.88;6277735;22;46373;-66
2023/04/02 02:13:58;;;;;;;;;2.00;2.00;;;;;12.17;64.59;100982.88;6277981;22;45487;-66
2023/04/02 02:16:28;;;;;;;;;1.00;1.00;;;;;11.98;64.80;100952.34;6278206;22;45257;-65
2023/04/02 02:19:01;;;;;;;;;1.25;1.00;;;;;12.02;65.07;100964.69;6278337;22;45173;-65
2023/04/02 02:21:43;;;;;;;;;3.00;3.00;;;;;11.92;65.25;100950.75;6277529;22;46310;-65
2023/04/02 02:24:31;;;;;;;;;0.25;0.25;;;;;12.12;65.49;100995.53;6278196;22;45334;-66
2023/04/02 02:27:21;;;;;;;;;3.00;2.00;;;;;12.09;65.57;101002.78;6250104;22;45498;-66
2023/04/02 02:29:50;;;;;;;;;1.00;1.00;;;;;11.81;65.74;100964.47;6278058;22;45394;-66
2023/04/02 02:32:19;;;;;;;;;0.25;0.25;;;;;11.94;65.80;100988.13;6277580;22;45332;-66
2023/04/02 02:34:55;;;;;;;;;1.00;1.00;;;;;11.89;65.94;100972.22;6277932;22;45533;-65
2023/04/02 02:37:29;;;;;;;;;1.00;1.00;;;;;12.08;66.15;101017.09;6277158;22;45227;-65
2023/04/02 02:39:58;;;;;;;;;1.25;1.25;;;;;11.90;66.10;100983.81;6277794;22;45276;-65
2023/04/02 02:42:31;;;;;;;;;1.00;1.00;;;;;11.98;66.38;101009.41;6277623;22;45682;-65
2023/04/02 02:45:00;;;;;;;;;0.75;0.75;;;;;11.91;66.67;101006.94;6278062;22;45518;-65
2023/04/02 02:47:28;;;;;;;;;1.50;1.50;;;;;11.87;66.72;100984.75;6249773;22;45376;-65
2023/04/02 02:49:57;;;;;;;;;0.75;0.75;;;;;11.99;66.89;101026.31;6277879;22;45299;-65
2023/04/02 02:52:31;;;;;;;;;1.00;1.00;;;;;11.78;67.00;100995.78;6249886;22;47122;-65
2023/04/02 02:55:01;;;;;;;;;2.00;1.50;;;;;11.87;67.16;101007.03;6278105;22;45672;-66
2023/04/02 02:57:32;;;;;;;;;2.25;1.00;;;;;11.90;67.17;101003.41;6277623;22;45210;-65
2023/04/02 03:00:00;;;;;;;;;2.50;1.25;;;;;11.88;67.66;101005.25;6277960;22;45307;-65
2023/04/02 03:02:27;;;;;;;;;2.25;2.25;;;;;11.88;68.10;101007.94;6277483;22;46221;-65
2023/04/02 03:04:54;;;;;;;;;1.50;1.50;;;;;11.82;68.81;101000.09;6277782;22;45249;-65
2023/04/02 03:07:24;;;;;;;;;4.75;2.00;;;;;11.73;68.72;101006.63;6277413;22;45630;-66
2023/04/02 03:09:59;;;;;;;;;1.00;1.00;;;;;11.94;69.37;101031.81;6277720;22;45331;-65
2023/04/02 03:12:41;;;;;;;;;1.00;1.00;;;;;11.49;69.32;100963.75;6249588;22;47500;-65
2023/04/02 03:15:34;;;;;;;;;2.00;2.00;;;;;11.99;69.21;101053.94;6277930;22;45229;-65
2023/04/02 03:18:09;;;;;;;;;2.00;2.00;;;;;11.76;69.61;101021.69;6250004;22;45283;-65
2023/04/02 03:20:49;;;;;;;;;1.00;1.00;;;;;11.62;69.47;100992.75;6277883;22;45740;-65
2023/04/02 03:23:34;;;;;;;;;1.00;1.00;;;;;11.67;69.70;101015.72;6277773;22;46114;-65
2023/04/02 03:26:21;;;;;;;;;1.00;1.00;;;;;11.75;70.21;101031.53;6278022;22;45597;-65
2023/04/02 03:29:00;;;;;;;;;1.00;1.00;;;;;11.68;69.91;101021.97;6278114;22;45264;-65
2023/04/02 03:31:40;;;;;;;;;0.75;0.75;;;;;11.61;69.67;101026.63;6277922;22;45383;-65
2023/04/02 03:34:31;;;;;;;;;2.25;1.00;;;;;11.66;69.73;101027.34;6277879;22;45650;-65
2023/04/02 03:37:15;;;;;;;;;1.50;1.50;;;;;11.72;70.23;101039.63;6277324;22;45583;-65
2023/04/02 03:39:53;;;;;;;;;0.50;0.50;;;;;11.66;70.06;101053.19;6277785;22;45418;-65
2023/04/02 03:42:24;;;;;;;;;1.25;0.75;;;;;11.60;70.38;101042.72;6277443;22;45312;-65
2023/04/02 03:44:59;;;;;;;;;1.25;1.00;;;;;11.34;69.59;101004.31;6277177;22;46829;-65
2023/04/02 03:47:39;;;;;;;;;1.00;1.00;;;;;11.72;70.18;101086.91;6277184;22;45860;-65
2023/04/02 03:50:17;;;;;;;;;2.50;2.50;;;;;11.80;69.81;101104.47;6277791;22;45428;-65
2023/04/02 03:52:43;;;;;;;;;3.25;2.00;;;;;11.52;69.55;101056.31;6275417;22;45274;-65
2023/04/02 03:55:24;;;;;;;;;2.25;2.00;;;;;11.54;69.14;101062.47;6277712;22;45213;-65
2023/04/02 03:58:09;;;;;;;;;3.00;2.50;;;;;11.74;69.44;101107.31;6249349;22;45844;-65
2023/04/02 04:00:47;;;;;;;;;3.50;3.00;;;;;11.48;69.04;101063.56;6277831;22;45656;-65
2023/04/02 04:03:23;;;;;;;;;2.00;1.00;;;;;11.49;69.23;101078.69;6277564;22;45260;-65
2023/04/02 04:05:58;;;;;;;;;4.00;4.00;;;;;11.49;69.40;101083.13;6277235;22;45270;-65
2023/04/02 04:08:31;;;;;;;;;3.00;3.00;;;;;11.50;69.31;101077.75;6277368;22;45511;-65
2023/04/02 04:11:02;;;;;;;;;4.50;4.50;;;;;11.31;69.45;101055.19;6249541;22;45264;-65
2023/04/02 04:13:33;;;;;;;;;5.75;4.75;;;;;11.49;69.18;101088.50;6276882;22;45334;-65
2023/04/02 04:16:05;;;;;;;;;4.00;4.00;;;;;11.47;69.44;101096.56;6277530;22;45312;-66
2023/04/02 04:18:42;;;;;;;;;4.50;4.50;;;;;11.17;69.39;101052.06;6277237;22;45482;-65
2023/04/02 04:21:21;;;;;;;;;4.00;4.00;;;;;11.61;69.35;101130.00;6276891;22;45212;-65
2023/04/02 04:23:49;;;;;;;;;4.00;4.00;;;;;11.60;69.24;101125.59;6277354;22;45351;-65
2023/04/02 04:26:29;;;;;;;;;5.25;4.25;;;;;11.52;69.26;101127.63;6277497;22;45366;-65
2023/04/02 04:28:57;;;;;;;;;5.75;4.50;;;;;11.54;69.41;101148.03;6276637;22;45399;-65
2023/04/02 04:31:45;;;;;;;;;5.00;5.00;;;;;11.46;69.85;101132.25;6277033;22;45270;-65
2023/04/02 04:34:16;;;;;;;;;10.00;6.75;;;;;11.44;69.58;101138.53;6277291;22;45557;-65
2023/04/02 04:36:52;;;;;;;;;6.00;6.00;;;;;11.40;69.37;101135.09;6276689;22;46485;-65
2023/04/02 04:39:23;;;;;;;;;6.75;3.50;;;;;11.44;69.57;101136.78;6277081;22;45407;-65
2023/04/02 04:41:53;;;;;;;;;9.50;7.00;;;;;11.45;69.38;101149.19;6277125;22;45175;-65
2023/04/02 04:44:23;;;;;;;;;7.75;6.00;;;;;11.31;70.36;101135.38;6277179;22;45444;-65
2023/04/02 04:47:09;;;;;;;;;6.50;6.50;;;;;11.35;70.11;101153.06;6277029;22;45267;-65
2023/04/02 04:49:43;;;;;;;;;9.25;7.00;;;;;11.34;69.98;101158.44;6249089;22;45745;-66
2023/04/02 04:52:17;;;;;;;;;9.50;6.75;;;;;11.26;70.01;101159.56;6277159;22;45240;-65
2023/04/02 04:54:44;;;;;;;;;6.75;6.75;;;;;11.15;69.95;101147.41;6277460;22;45662;-65
2023/04/02 04:57:42;;;;;;;;;9.50;9.50;;;;;11.17;69.99;101166.94;6276510;22;45302;-65
2023/04/02 05:00:41;;;;;;;;;9.00;6.25;;;;;11.19;70.25;101178.47;6241663;22;45343;-65
2023/04/02 05:03:12;;;;;;;;;8.50;8.50;;;;;11.21;70.13;101181.97;6276490;22;45378;-65
2023/04/02 05:05:40;;;;;;;;;9.75;9.00;;;;;11.11;70.72;101166.22;6278688;22;45384;-65
2023/04/02 05:08:26;;;;;;;;;12.00;8.50;;;;;11.21;70.58;101182.88;6277977;22;45367;-65
2023/04/02 05:10:59;;;;;;;;;10.00;10.00;;;;;11.22;70.28;101189.06;6278222;22;45455;-65
2023/04/02 05:13:40;;;;;;;;;8.25;7.25;;;;;11.23;69.91;101201.53;6250193;22;45389;-65
2023/04/02 05:16:17;;;;;;;;;10.50;7.75;;;;;11.21;70.08;101193.56;6278109;22;45229;-65
2023/04/02 05:19:02;;;;;;;;;6.75;6.00;;;;;11.22;70.20;101197.97;6278461;22;45394;-65
2023/04/02 05:21:48;;;;;;;;;12.25;10.75;;;;;11.11;69.82;101176.03;6275561;22;45358;-65
2023/04/02 05:24:47;;;;;;;;;10.25;9.50;;;;;11.31;69.91;101216.44;6278590;22;45398;-65
2023/04/02 05:27:22;;;;;;;;;10.50;9.75;;;;;11.23;69.85;101207.75;6277860;22;45299;-65
2023/04/02 05:30:05;;;;;;;;;10.00;8.00;;;;;10.95;69.76;101164.88;6278045;22;45446;-65
2023/04/02 05:32:39;;;;;;;;;9.75;8.50;;;;;10.91;69.15;101166.75;6278374;22;45307;-65
2023/04/02 05:35:06;;;;;;;;;8.00;7.25;;;;;11.04;69.50;101210.03;6278510;22;45280;-65
2023/04/02 05:37:32;;;;;;;;;8.75;6.75;;;;;11.10;69.62;101217.88;6277611;22;45343;-65
2023/04/02 05:40:12;;;;;;;;;6.00;6.00;;;;;11.05;69.92;101211.78;6277664;22;46401;-65
2023/04/02 05:42:42;;;;;;;;;9.75;9.75;;;;;11.05;69.81;101224.28;6277964;22;45264;-65
2023/04/02 05:45:19;;;;;;;;;9.00;7.50;;;;;11.09;69.75;101236.63;6277987;22;45277;-65
2023/04/02 05:47:48;;;;;;;;;11.00;11.00;;;;;10.91;69.90;101214.81;6249974;22;45313;-65
2023/04/02 05:50:25;;;;;;;;;10.25;7.25;;;;;11.06;69.69;101248.28;6277870;22;46412;-65
2023/04/02 05:53:01;;;;;;;;;10.00;8.00;;;;;11.07;69.39;101249.16;6250331;22;46075;-65
2023/04/02 05:55:31;;;;;;;;;11.00;10.25;;;;;11.04;70.00;101254.56;6278655;22;45358;-65
2023/04/02 05:58:06;;;;;;;;;9.00;9.00;;;;;10.90;69.78;101244.25;6277378;22;45284;-65
2023/04/02 06:00:38;;;;;;;;;9.50;8.25;;;;;10.95;70.25;101263.69;6250217;22;47516;-65
2023/04/02 06:03:44;;;;;;;;;12.00;10.50;;;;;10.96;70.84;101272.59;6250063;22;45363;-65
2023/04/02 06:06:20;;;;;;;;;8.25;8.00;;;;;10.97;70.20;101267.19;6254356;22;45516;-65
2023/04/02 06:08:57;;;;;;;;;11.00;10.00;;;;;10.75;70.34;101233.03;6278028;22;45304;-65
2023/04/02 06:11:41;;;;;;;;;4.00;4.00;;;;;10.88;70.30;101248.75;6278043;22;46018;-65
2023/04/02 06:14:10;;;;;;;;;8.75;6.75;;;;;10.93;70.07;101262.88;6249747;22;45606;-65
2023/04/02 06:16:37;;;;;;;;;6.25;5.00;;;;;10.89;70.09;101256.75;6250335;22;45322;-65
2023/04/02 06:19:12;;;;;;;;;8.50;6.00;;;;;10.78;70.27;101229.41;6278079;22;45280;-65
2023/04/02 06:21:48;;;;;;;;;9.75;8.75;;;;;11.08;70.20;101273.16;6277618;22;46126;-65
2023/04/02 06:24:18;;;;;;;;;8.00;6.00;;;;;11.01;70.28;101270.66;6278070;22;45271;-65
2023/04/02 06:26:52;;;;;;;;;10.00;8.00;;;;;10.93;70.02;101265.53;6278288;22;45368;-65
2023/04/02 06:29:37;;;;;;;;;11.75;9.75;;;;;10.98;70.30;101284.13;6278097;22;45452;-65
2023/04/02 06:32:05;;;;;;;;;9.00;9.00;;;;;10.75;70.90;101237.50;6250123;22;47167;-65
2023/04/02 06:34:31;;;;;;;;;8.75;4.25;;;;;10.98;70.35;101290.34;6250358;22;45792;-65
2023/04/02 06:36:59;;;;;;;;;7.00;7.00;;;;;11.01;70.12;101284.94;6249784;22;45373;-65
2023/04/02 06:39:26;;;;;;;;;6.50;6.25;;;;;10.90;70.66;101277.16;6250269;22;45386;-65
2023/04/02 06:42:12;;;;;;;;;7.50;7.50;;;;;10.97;70.63;101285.03;6250008;22;48143;-65
2023/04/02 06:44:38;;;;;;;;;9.00;6.00;;;;;10.71;70.18;101258.06;6277909;22;45323;-65
2023/04/02 06:47:38;;;;;;;;;4.75;4.00;;;;;10.98;70.07;101302.81;6277767;22;45394;-65
2023/04/02 06:50:13;;;;;;;;;7.00;6.75;;;;;11.03;70.41;101317.81;6278182;22;45292;-65
2023/04/02 06:52:46;;;;;;;;;4.50;4.00;;;;;11.02;70.32;101312.50;6277481;22;45300;-65
2023/04/02 06:55:45;;;;;;;;;6.25;6.25;;;;;11.00;70.02;101314.34;6278147;22;45254;-65
2023/04/02 06:58:10;;;;;;;;;8.75;6.00;;;;;10.99;70.22;101315.25;6277397;22;45256;-65
2023/04/02 07:00:47;;;;;;;;;7.00;7.00;;;;;10.89;70.03;101304.81;6277992;22;45422;-65
2023/04/02 07:03:31;;;;;;;;;8.00;8.00;;;;;10.91;70.45;101321.66;6277704;22;45390;-65
2023/04/02 07:05:58;;;;;;;;;10.00;8.00;;;;;11.00;70.17;101333.03;6277122;22;45356;-65
2023/04/02 07:08:24;;;;;;;;;7.00;6.50;;;;;10.66;70.19;101289.34;6277626;22;45565;-65
2023/04/02 07:10:49;;;;;;;;;8.50;8.25;;;;;10.82;70.26;101313.00;6277923;22;45340;-65
2023/04/02 07:13:18;;;;;;;;;7.25;5.25;;;;;10.78;70.41;101322.00;6276985;22;45500;-65
2023/04/02 07:15:45;;;;;;;;;8.00;8.00;;;;;10.71;69.90;101311.47;6277791;22;45326;-65
2023/04/02 07:18:20;;;;;;;;;8.75;7.75;;;;;10.96;69.64;101352.72;6275635;22;45264;-65
2023/04/02 07:20:46;;;;;;;;;7.75;7.75;;;;;10.84;70.16;101335.19;6249932;22;45248;-65
2023/04/02 07:23:12;;;;;;;;;11.75;8.50;;;;;11.03;70.12;101363.22;6275165;22;48266;-65
2023/04/02 07:25:38;;;;;;;;;6.50;5.25;;;;;11.04;69.84;101372.13;6250111;22;45588;-65
2023/04/02 07:28:04;;;;;;;;;9.25;6.25;;;;;10.95;69.60;101367.88;6249924;22;45335;-65
2023/04/02 07:30:30;;;;;;;;;6.00;6.00;;;;;10.93;70.25;101372.38;6277792;22;45319;-65
2023/04/02 07:32:55;;;;;;;;;8.00;7.25;;;;;10.84;69.98;101367.25;6277592;22;45352;-65
2023/04/02 07:35:21;;;;;;;;;9.50;9.25;;;;;10.66;69.95;101336.50;6249686;22;45993;-65
2023/04/02 07:37:46;;;;;;;;;9.75;9.00;;;;;10.84;70.24;101373.50;6277442;22;45280;-65
2023/04/02 07:40:19;;;;;;;;;11.00;9.25;;;;;10.92;69.91;101383.97;6277707;22;45165;-65
2023/04/02 07:42:45;;;;;;;;;12.00;9.00;;;;;10.91;69.70;101384.91;6249493;22;48158;-65
2023/04/02 07:45:11;;;;;;;;;11.50;10.25;;;;;11.00;70.21;101389.16;6249922;22;45320;-65
2023/04/02 07:47:36;;;;;;;;;9.25;9.00;;;;;10.86;69.60;101381.44;6277023;22;45352;-65
2023/04/02 07:50:02;;;;;;;;;12.50;10.25;;;;;10.94;69.78;101404.41;6277859;22;45552;-65
2023/04/02 07:52:28;;;;;;;;;15.75;12.75;;;;;10.95;69.58;101405.28;6276690;22;46768;-65
2023/04/02 07:54:53;;;;;;;;;11.00;10.50;;;;;10.78;70.19;101384.31;6277756;22;45344;-65
2023/04/02 07:57:18;;;;;;;;;12.75;10.00;;;;;10.86;70.25;101405.47;6277691;22;45189;-65
2023/04/02 07:59:44;;;;;;;;;8.25;8.25;;;;;10.97;70.48;101422.13;6277837;22;45259;-65
2023/04/02 08:02:20;;;;;;;;;13.25;10.75;;;;;10.88;70.40;101399.19;6277371;22;45971;-65
2023/04/02 08:04:46;;;;;;;;;13.00;12.00;;;;;10.75;69.99;101382.56;6277612;22;45217;-65
2023/04/02 08:07:11;;;;;;;;;10.75;10.25;;;;;10.81;70.09;101391.34;6277043;22;45354;-65
2023/04/02 08:09:36;;;;;;;;;10.25;10.00;;;;;10.87;70.21;101396.56;6249728;22;45274;-65
2023/04/02 08:12:02;;;;;;;;;13.00;12.00;;;;;10.77;69.96;101392.34;6277208;22;45420;-65
2023/04/02 08:14:27;;;;;;;;;7.50;6.50;;;;;10.93;70.49;101420.47;6249524;22;45816;-65
2023/04/02 08:16:54;;;;;;;;;11.75;8.75;;;;;10.81;70.21;101410.03;6275241;22;45280;-65
2023/04/02 08:19:20;;;;;;;;;11.75;9.25;;;;;10.99;69.97;101433.66;6277422;22;45394;-65
2023/04/02 08:21:49;;;;;;;;;9.25;8.75;;;;;10.84;70.26;101432.25;6276982;22;45310;-65
2023/04/02 08:24:17;;;;;;;;;9.00;9.00;;;;;10.83;69.99;101426.94;6249683;22;45188;-65
2023/04/02 08:26:44;;;;;;;;;11.25;10.25;;;;;10.88;70.36;101433.06;6277526;22;45318;-65
2023/04/02 08:29:10;;;;;;;;;17.00;15.75;;;;;10.90;69.96;101441.91;6277332;22;45463;-65
2023/04/02 08:31:35;;;;;;;;;12.25;10.25;;;;;10.67;69.96;101410.38;6248810;22;47864;-65
2023/04/02 08:34:00;;;;;;;;;11.00;11.00;;;;;10.65;70.44;101406.84;6249555;22;45418;-65
2023/04/02 08:36:29;;;;;;;;;12.75;12.25;;;;;10.94;70.25;101463.19;6276326;22;45505;-65
2023/04/02 08:38:55;;;;;;;;;18.50;11.75;;;;;10.96;69.96;101463.13;6249664;22;45618;-65
2023/04/02 08:41:26;;;;;;;;;13.25;11.50;;;;;10.90;69.96;101444.56;6277203;22;45298;-65
2023/04/02 08:44:36;;;;;;;;;10.50;10.50;;;;;11.00;69.91;101461.28;6249113;22;45415;-65
2023/04/02 08:47:07;;;;;;;;;11.50;10.75;;;;;10.87;69.74;101448.16;6277068;22;45644;-65
2023/04/02 08:49:43;;;;;;;;;10.75;8.25;;;;;10.99;69.37;101479.06;6248428;22;45246;-65
2023/04/02 08:52:25;;;;;;;;;11.00;10.00;;;;;10.94;69.15;101471.19;6247560;22;47053;-65
2023/04/02 08:54:52;;;;;;;;;10.00;10.00;;;;;11.01;69.37;101477.28;6276701;22;45406;-65
2023/04/02 08:57:30;;;;;;;;;10.00;8.00;;;;;11.01;69.33;101479.94;6276303;22;45184;-65
2023/04/02 09:00:29;;;;;;;;;11.75;10.00;;;;;11.04;69.16;101482.56;6277378;22;45285;-65
2023/04/02 09:03:01;;;;;;;;;10.25;8.50;;;;;11.04;69.18;101487.00;6243713;22;48107;-65
2023/04/02 09:05:30;;;;;;;;;14.00;11.50;;;;;11.01;69.64;101495.97;6277178;22;45240;-65
2023/04/02 09:08:00;;;;;;;;;14.00;12.50;;;;;10.85;69.00;101467.84;6276719;22;45460;-65
2023/04/02 09:10:38;;;;;;;;;12.50;11.75;;;;;11.02;69.21;101492.38;6277155;22;45324;-65
2023/04/02 09:13:16;;;;;;;;;14.50;13.25;;;;;11.04;69.37;101500.34;6247845;22;46998;-65
2023/04/02 09:15:42;;;;;;;;;15.75;11.00;;;;;11.07;69.60;101513.66;6248945;22;45366;-65
2023/04/02 09:18:18;;;;;;;;;11.00;10.50;;;;;10.90;69.55;101484.63;6276381;22;45459;-65
2023/04/02 09:20:46;;;;;;;;;11.00;11.00;;;;;11.06;69.40;101501.19;6276565;22;45262;-65
2023/04/02 09:23:17;;;;;;;;;13.25;10.75;;;;;11.17;69.27;101531.22;6276899;22;45546;-65
2023/04/02 09:25:48;;;;;;;;;14.25;11.00;;;;;11.10;68.89;101527.81;6276648;22;45272;-65
2023/04/02 09:28:14;;;;;;;;;11.50;9.00;;;;;11.17;68.87;101546.41;6249056;22;45961;-65
2023/04/02 09:31:01;;;;;;;;;16.75;9.50;;;;;11.14;68.85;101544.66;6276811;22;45327;-65
2023/04/02 09:33:47;;;;;;;;;14.75;11.25;;;;;11.11;68.41;101542.94;6276454;22;45368;-65
2023/04/02 09:36:33;;;;;;;;;11.25;10.00;;;;;11.01;68.28;101532.47;6276368;22;45546;-65
2023/04/02 09:39:20;;;;;;;;;10.50;9.25;;;;;11.09;68.52;101541.19;6277113;22;45272;-65
2023/04/02 09:41:46;;;;;;;;;11.25;9.50;;;;;11.05;68.56;101531.50;6276602;22;45256;-65
2023/04/02 09:44:25;;;;;;;;;9.50;9.50;;;;;11.13;68.69;101558.94;6276437;22;46568;-65
2023/04/02 09:47:02;;;;;;;;;9.75;9.25;;;;;11.10;68.90;101562.56;6276768;22;45238;-65
2023/04/02 09:49:31;;;;;;;;;9.75;9.75;;;;;11.03;68.57;101557.38;6277834;22;46284;-65
2023/04/02 09:52:28;;;;;;;;;13.25;10.50;;;;;11.09;68.65;101567.94;6277881;22;45461;-65
2023/04/02 09:55:17;;;;;;;;;11.00;9.50;;;;;11.08;68.64;101571.53;6273131;22;46445;-65
2023/04/02 09:57:45;;;;;;;;;13.00;11.50;;;;;11.00;68.80;101555.66;6277362;22;45578;-65
2023/04/02 10:00:19;;;;;;;;;11.75;10.75;;;;;11.07;68.26;101565.28;6249436;22;45293;-65
2023/04/02 10:02:58;;;;;;;;;14.00;11.00;;;;;11.08;68.50;101579.53;6250213;22;45495;-66
2023/04/02 10:05:23;;;;;;;;;10.25;10.25;;;;;10.98;68.62;101562.81;6278143;22;46138;-65
2023/04/02 10:07:52;;;;;;;;;11.50;9.50;;;;;11.06;68.41;101584.91;6249910;22;45262;-65
2023/04/02 10:10:31;;;;;;;;;11.00;9.25;;;;;11.06;68.36;101584.91;6250381;22;45213;-65
2023/04/02 10:13:20;;;;;;;;;15.00;11.00;;;;;11.11;68.79;101580.34;6277691;22;45557;-65
2023/04/02 10:15:45;;;;;;;;;19.00;15.25;;;;;11.13;68.56;101591.88;6250013;22;47309;-65
2023/04/02 10:18:24;;;;;;;;;17.50;13.25;;;;;11.11;68.44;101598.19;6277347;22;45351;-65
2023/04/02 10:20:52;;;;;;;;;17.75;12.50;;;;;11.02;68.00;101588.53;6250193;22;45374;-65
2023/04/02 10:23:18;;;;;;;;;16.75;11.00;;;;;11.10;68.16;101609.78;6275591;22;45398;-65
2023/04/02 10:26:08;;;;;;;;;12.25;9.00;;;;;11.10;68.02;101609.78;6277608;22;45352;-65
2023/04/02 10:28:59;;;;;;;;;12.25;10.75;;;;;10.99;68.36;101588.59;6277279;22;45258;-65
2023/04/02 10:31:51;;;;;;;;;11.75;10.00;;;;;11.11;68.08;101612.41;6277846;22;45410;-65
2023/04/02 10:34:33;;;;;;;;;11.00;9.50;;;;;10.79;67.93;101569.44;6249727;22;45597;-65
2023/04/02 10:37:16;;;;;;;;;12.75;11.50;;;;;11.00;67.75;101624.25;6249955;22;47065;-65
2023/04/02 10:39:54;;;;;;;;;12.75;12.50;;;;;10.78;67.12;101586.41;6277996;22;45200;-65
2023/04/02 10:42:34;;;;;;;;;13.75;12.50;;;;;10.84;67.61;101603.19;6277780;22;45284;-65
2023/04/02 10:45:21;;;;;;;;;16.00;11.25;;;;;10.98;67.40;101640.28;6278077;22;45392;-65
2023/04/02 10:47:58;;;;;;;;;10.00;9.00;;;;;10.99;67.59;101642.03;6249193;22;48358;-65
2023/04/02 10:50:32;;;;;;;;;12.00;10.00;;;;;10.89;67.84;101628.00;6249709;22;45514;-65
2023/04/02 10:53:20;;;;;;;;;13.50;11.50;;;;;10.98;67.93;101642.09;6278049;22;45213;-65
2023/04/02 10:55:51;;;;;;;;;10.25;9.00;;;;;10.90;67.74;101634.22;6277799;22;45438;-65
2023/04/02 10:58:23;;;;;;;;;11.75;11.00;;;;;10.93;67.40;101631.50;6276910;22;45268;-65
2023/04/02 11:00:52;;;;;;;;;13.75;11.75;;;;;10.92;67.49;101637.72;6249469;22;45560;-65
2023/04/02 11:03:42;;;;;;;;;14.25;10.25;;;;;11.04;67.29;101656.22;6277817;22;45316;-65
2023/04/02 11:06:23;;;;;;;;;13.00;12.00;;;;;10.93;67.39;101647.53;6277708;22;45531;-65
2023/04/02 11:08:52;;;;;;;;;12.00;11.00;;;;;10.92;67.22;101645.75;6277877;22;45479;-65
2023/04/02 11:11:26;;;;;;;;;10.75;9.50;;;;;10.93;67.69;101655.53;6278090;22;45339;-65
2023/04/02 11:14:30;;;;;;;;;12.00;10.75;;;;;11.02;67.60;101671.38;6275643;22;45299;-65
2023/04/02 11:16:59;;;;;;;;;15.25;10.00;;;;;11.05;67.72;101673.13;6277639;22;45303;-65
2023/04/02 11:19:33;;;;;;;;;11.75;11.00;;;;;10.92;67.40;101646.63;6277661;22;45433;-65
2023/04/02 11:22:15;;;;;;;;;14.25;11.75;;;;;11.03;67.56;101672.28;6275732;22;45485;-65
2023/04/02 11:24:53;;;;;;;;;17.50;13.00;;;;;10.82;67.53;101628.16;6249665;22;45205;-65
2023/04/02 11:27:35;;;;;;;;;16.75;15.75;;;;;11.05;67.65;101675.78;6277139;22;45467;-65
2023/04/02 11:30:23;;;;;;;;;13.25;12.75;;;;;10.83;67.83;101644.13;6249841;22;48308;-65
2023/04/02 11:32:49;;;;;;;;;17.00;14.25;;;;;10.99;67.42;101668.75;6249853;22;45681;-65
2023/04/02 11:35:25;;;;;;;;;14.50;13.00;;;;;11.03;67.35;101675.81;6277944;22;45450;-65
2023/04/02 11:37:53;;;;;;;;;20.00;18.25;;;;;11.02;67.29;101686.53;6277256;22;45343;-65
2023/04/02 11:40:40;;;;;;;;;16.50;16.50;;;;;11.00;67.39;101686.56;6277525;22;45306;-65
2023/04/02 11:43:32;;;;;;;;;11.00;11.00;;;;;11.07;67.61;101688.19;6277572;22;45194;-65
2023/04/02 11:46:25;;;;;;;;;19.00;16.50;;;;;11.04;67.50;101682.94;6245031;22;45365;-65
2023/04/02 11:48:50;;;;;;;;;20.00;15.50;;;;;10.93;67.53;101664.41;6276851;22;45410;-65
2023/04/02 11:51:21;;;;;;;;;22.75;16.00;;;;;11.16;67.37;101699.63;6277363;22;45337;-65
2023/04/02 11:53:53;;;;;;;;;13.00;11.50;;;;;11.00;67.31;101669.66;6249462;22;45539;-65